sensor_id;sensor_type;location;lat;lon;timestamp;pressure;altitude;pressure_sealevel;temperature;humidity
37368;BME280;23240;43.210;27.910;2023-05-23T00:00:14;100629.06;;;16.99;100.00
37368;BME280;23240;43.210;27.910;2023-05-23T00:02:39;100623.97;;;17.04;100.00
37368;BME280;23240;43.210;27.910;2023-05-23T00:05:05;100623.97;;;17.04;100.00
37368;BME280;23240;43.210;27.910;2023-05-23T00:07:31;100623.78;;;17.05;100.00
37368;BME280;23240;43.210;27.910;2023-05-23T00:09:57;100616.19;;;17.01;100.00
37368;BME280;23240;43.210;27.910;2023-05-23T00:12:22;100623.63;;;16.99;100.00
37368;BME280;23240;43.210;27.910;2023-05-23T00:14:48;100621.25;;;17.04;100.00
37368;BME280;23240;43.210;27.910;2023-05-23T00:17:13;100612.63;;;17.08;100.00
37368;BME280;23240;43.210;27.910;2023-05-23T00:19:38;100611.44;;;17.11;100.00
37368;BME280;23240;43.210;27.910;2023-05-23T00:22:04;100610.44;;;17.12;100.00
37368;BME280;23240;43.210;27.910;2023-05-23T00:24:29;100612.47;;;17.10;100.00
37368;BME280;23240;43.210;27.910;2023-05-23T00:26:54;100615.16;;;17.10;100.00
37368;BME280;23240;43.210;27.910;2023-05-23T00:29:20;100600.59;;;17.11;100.00
37368;BME280;23240;43.210;27.910;2023-05-23T00:31:45;100613.66;;;16.99;100.00
37368;BME280;23240;43.210;27.910;2023-05-23T00:34:14;100615.34;;;17.00;100.00
37368;BME280;23240;43.210;27.910;2023-05-23T00:36:39;100610.44;;;17.04;100.00
37368;BME280;23240;43.210;27.910;2023-05-23T00:39:07;100610.13;;;17.07;100.00
37368;BME280;23240;43.210;27.910;2023-05-23T00:41:33;100609.75;;;17.10;100.00
37368;BME280;23240;43.210;27.910;2023-05-23T00:43:58;100604.00;;;17.13;100.00
37368;BME280;23240;43.210;27.910;2023-05-23T00:46:24;100601.97;;;17.15;100.00
37368;BME280;23240;43.210;27.910;2023-05-23T00:48:50;100601.63;;;17.18;100.00
37368;BME280;23240;43.210;27.910;2023-05-23T00:51:15;100600.59;;;17.19;100.00
37368;BME280;23240;43.210;27.910;2023-05-23T00:53:40;100609.06;;;17.24;100.00
37368;BME280;23240;43.210;27.910;2023-05-23T00:56:07;100593.13;;;17.29;100.00
37368;BME280;23240;43.210;27.910;2023-05-23T00:58:32;100603.97;;;17.29;100.00
37368;BME280;23240;43.210;27.910;2023-05-23T01:00:58;100600.56;;;17.35;100.00
37368;BME280;23240;43.210;27.910;2023-05-23T01:03:24;100596.88;;;17.36;100.00
37368;BME280;23240;43.210;27.910;2023-05-23T01:05:53;100599.91;;;17.41;100.00
37368;BME280;23240;43.210;27.910;2023-05-23T01:08:18;100591.78;;;17.41;100.00
37368;BME280;23240;43.210;27.910;2023-05-23T01:10:43;100594.81;;;17.46;100.00
37368;BME280;23240;43.210;27.910;2023-05-23T01:15:44;100597.84;;;17.43;100.00
37368;BME280;23240;43.210;27.910;2023-05-23T01:18:18;100591.59;;;17.43;100.00
37368;BME280;23240;43.210;27.910;2023-05-23T01:20:48;100594.28;;;17.43;100.00
37368;BME280;23240;43.210;27.910;2023-05-23T01:26:12;100582.63;;;17.34;100.00
37368;BME280;23240;43.210;27.910;2023-05-23T01:28:44;100592.28;;;17.37;100.00
37368;BME280;23240;43.210;27.910;2023-05-23T01:31:10;100586.50;;;17.40;100.00
37368;BME280;23240;43.210;27.910;2023-05-23T01:33:36;100585.50;;;17.41;100.00
37368;BME280;23240;43.210;27.910;2023-05-23T01:36:02;100591.41;;;17.44;100.00
37368;BME280;23240;43.210;27.910;2023-05-23T01:38:28;100583.97;;;17.46;100.00
37368;BME280;23240;43.210;27.910;2023-05-23T01:40:53;100587.00;;;17.43;100.00
37368;BME280;23240;43.210;27.910;2023-05-23T01:43:19;100580.94;;;17.41;100.00
37368;BME280;23240;43.210;27.910;2023-05-23T01:45:44;100581.78;;;17.42;100.00
37368;BME280;23240;43.210;27.910;2023-05-23T01:48:10;100584.50;;;17.34;100.00
37368;BME280;23240;43.210;27.910;2023-05-23T01:50:36;100584.00;;;17.30;100.00
37368;BME280;23240;43.210;27.910;2023-05-23T01:53:02;100576.56;;;17.24;100.00
37368;BME280;23240;43.210;27.910;2023-05-23T01:55:28;100575.22;;;17.20;100.00
37368;BME280;23240;43.210;27.910;2023-05-23T01:57:55;100570.19;;;17.17;100.00
37368;BME280;23240;43.210;27.910;2023-05-23T02:00:21;100585.91;;;17.13;100.00
37368;BME280;23240;43.210;27.910;2023-05-23T02:02:47;100577.78;;;17.13;100.00
37368;BME280;23240;43.210;27.910;2023-05-23T02:05:12;100575.25;;;17.12;100.00
37368;BME280;23240;43.210;27.910;2023-05-23T02:07:38;100574.91;;;17.15;100.00
37368;BME280;23240;43.210;27.910;2023-05-23T02:10:03;100581.34;;;17.14;100.00
37368;BME280;23240;43.210;27.910;2023-05-23T02:12:29;100580.31;;;17.15;100.00
37368;BME280;23240;43.210;27.910;2023-05-23T02:14:54;100585.38;;;17.18;100.00
37368;BME280;23240;43.210;27.910;2023-05-23T02:17:20;100586.41;;;17.17;100.00
37368;BME280;23240;43.210;27.910;2023-05-23T02:19:46;100569.16;;;17.18;100.00
37368;BME280;23240;43.210;27.910;2023-05-23T02:22:11;100574.19;;;17.21;100.00
37368;BME280;23240;43.210;27.910;2023-05-23T02:24:37;100569.16;;;17.18;100.00
37368;BME280;23240;43.210;27.910;2023-05-23T02:27:02;100565.09;;;17.14;100.00
37368;BME280;23240;43.210;27.910;2023-05-23T02:29:28;100573.22;;;17.14;100.00
37368;BME280;23240;43.210;27.910;2023-05-23T02:31:53;100575.25;;;17.12;100.00
37368;BME280;23240;43.210;27.910;2023-05-23T02:34:18;100574.75;;;17.08;100.00
37368;BME280;23240;43.210;27.910;2023-05-23T02:36:43;100573.72;;;17.09;100.00
37368;BME280;23240;43.210;27.910;2023-05-23T02:39:09;100578.81;;;17.12;100.00
37368;BME280;23240;43.210;27.910;2023-05-23T02:41:34;100571.34;;;17.14;100.00
37368;BME280;23240;43.210;27.910;2023-05-23T02:44:01;100570.50;;;17.14;100.00
37368;BME280;23240;43.210;27.910;2023-05-23T02:46:26;100572.88;;;17.17;100.00
37368;BME280;23240;43.210;27.910;2023-05-23T02:48:51;100576.56;;;17.16;100.00
37368;BME280;23240;43.210;27.910;2023-05-23T02:51:17;100567.81;;;17.14;100.00
37368;BME280;23240;43.210;27.910;2023-05-23T02:53:42;100582.16;;;17.23;100.00
37368;BME280;23240;43.210;27.910;2023-05-23T02:56:07;100573.34;;;17.29;100.00
37368;BME280;23240;43.210;27.910;2023-05-23T02:58:34;100574.50;;;17.34;100.00
37368;BME280;23240;43.210;27.910;2023-05-23T03:01:02;100581.28;;;17.38;100.00
37368;BME280;23240;43.210;27.910;2023-05-23T03:03:28;100575.53;;;17.41;100.00
37368;BME280;23240;43.210;27.910;2023-05-23T03:05:56;100577.88;;;17.44;100.00
37368;BME280;23240;43.210;27.910;2023-05-23T03:08:22;100574.16;;;17.45;100.00
37368;BME280;23240;43.210;27.910;2023-05-23T03:10:47;100575.00;;;17.46;100.00
37368;BME280;23240;43.210;27.910;2023-05-23T03:13:12;100573.28;;;17.45;100.00
37368;BME280;23240;43.210;27.910;2023-05-23T03:15:38;100569.09;;;17.42;100.00
37368;BME280;23240;43.210;27.910;2023-05-23T03:18:03;100579.22;;;17.48;100.00
37368;BME280;23240;43.210;27.910;2023-05-23T03:20:28;100585.63;;;17.56;100.00
37368;BME280;23240;43.210;27.910;2023-05-23T03:22:54;100578.81;;;17.60;100.00
37368;BME280;23240;43.210;27.910;2023-05-23T03:25:19;100571.72;;;17.67;100.00
37368;BME280;23240;43.210;27.910;2023-05-23T03:27:45;100572.22;;;17.70;100.00
37368;BME280;23240;43.210;27.910;2023-05-23T03:30:10;100597.06;;;17.82;100.00
37368;BME280;23240;43.210;27.910;2023-05-23T03:32:35;100584.84;;;17.94;100.00
37368;BME280;23240;43.210;27.910;2023-05-23T03:35:01;100593.75;;;18.03;100.00
37368;BME280;23240;43.210;27.910;2023-05-23T03:37:26;100591.53;;;18.07;100.00
37368;BME280;23240;43.210;27.910;2023-05-23T03:39:52;100589.84;;;18.06;100.00
37368;BME280;23240;43.210;27.910;2023-05-23T03:42:17;100589.63;;;18.15;100.00
37368;BME280;23240;43.210;27.910;2023-05-23T03:44:42;100606.38;;;18.19;100.00
37368;BME280;23240;43.210;27.910;2023-05-23T03:47:08;100604.28;;;18.29;100.00
37368;BME280;23240;43.210;27.910;2023-05-23T03:49:33;100603.88;;;18.40;100.00
37368;BME280;23240;43.210;27.910;2023-05-23T03:51:59;100612.56;;;18.59;100.00
37368;BME280;23240;43.210;27.910;2023-05-23T03:54:24;100609.31;;;18.63;100.00
37368;BME280;23240;43.210;27.910;2023-05-23T03:56:49;100619.38;;;18.55;100.00
37368;BME280;23240;43.210;27.910;2023-05-23T03:59:15;100616.84;;;18.53;100.00
37368;BME280;23240;43.210;27.910;2023-05-23T04:01:40;100619.19;;;18.56;100.00
37368;BME280;23240;43.210;27.910;2023-05-23T04:04:05;100618.72;;;18.53;100.00
37368;BME280;23240;43.210;27.910;2023-05-23T04:06:31;100612.06;;;18.55;100.00
37368;BME280;23240;43.210;27.910;2023-05-23T04:08:57;100607.16;;;18.59;100.00
37368;BME280;23240;43.210;27.910;2023-05-23T04:11:23;100613.59;;;18.58;100.00
37368;BME280;23240;43.210;27.910;2023-05-23T04:13:48;100611.91;;;18.57;100.00
37368;BME280;23240;43.210;27.910;2023-05-23T04:16:13;100614.56;;;18.65;100.00
37368;BME280;23240;43.210;27.910;2023-05-23T04:18:39;100611.47;;;18.76;100.00
37368;BME280;23240;43.210;27.910;2023-05-23T04:21:04;100612.97;;;18.79;100.00
37368;BME280;23240;43.210;27.910;2023-05-23T04:23:29;100602.94;;;18.79;100.00
37368;BME280;23240;43.210;27.910;2023-05-23T04:25:55;100610.16;;;18.64;100.00
37368;BME280;23240;43.210;27.910;2023-05-23T04:28:21;100615.28;;;18.59;100.00
37368;BME280;23240;43.210;27.910;2023-05-23T04:30:47;100617.66;;;18.62;100.00
37368;BME280;23240;43.210;27.910;2023-05-23T04:33:13;100622.34;;;18.68;100.00
37368;BME280;23240;43.210;27.910;2023-05-23T04:35:38;100624.06;;;18.69;100.00
37368;BME280;23240;43.210;27.910;2023-05-23T04:38:04;100631.16;;;18.70;100.00
37368;BME280;23240;43.210;27.910;2023-05-23T04:40:30;100628.63;;;18.68;100.00
37368;BME280;23240;43.210;27.910;2023-05-23T04:42:55;100630.19;;;18.63;100.00
37368;BME280;23240;43.210;27.910;2023-05-23T04:45:21;100629.50;;;18.61;100.00
37368;BME280;23240;43.210;27.910;2023-05-23T04:47:46;100635.22;;;18.66;100.00
37368;BME280;23240;43.210;27.910;2023-05-23T04:50:12;100638.13;;;18.64;100.00
37368;BME280;23240;43.210;27.910;2023-05-23T04:52:39;100635.06;;;18.90;100.00
37368;BME280;23240;43.210;27.910;2023-05-23T04:55:04;100630.06;;;19.02;100.00
37368;BME280;23240;43.210;27.910;2023-05-23T04:57:30;100633.19;;;19.14;100.00
37368;BME280;23240;43.210;27.910;2023-05-23T04:59:56;100639.56;;;19.21;100.00
37368;BME280;23240;43.210;27.910;2023-05-23T05:02:21;100628.72;;;19.21;100.00
37368;BME280;23240;43.210;27.910;2023-05-23T05:04:46;100631.41;;;19.06;100.00
37368;BME280;23240;43.210;27.910;2023-05-23T05:07:12;100634.56;;;19.10;100.00
37368;BME280;23240;43.210;27.910;2023-05-23T05:09:40;100637.22;;;19.18;100.00
37368;BME280;23240;43.210;27.910;2023-05-23T05:12:06;100646.19;;;19.18;100.00
37368;BME280;23240;43.210;27.910;2023-05-23T05:14:31;100645.00;;;19.21;100.00
37368;BME280;23240;43.210;27.910;2023-05-23T05:16:56;100642.19;;;19.29;100.00
37368;BME280;23240;43.210;27.910;2023-05-23T05:19:22;100643.16;;;19.36;100.00
37368;BME280;23240;43.210;27.910;2023-05-23T05:21:48;100647.41;;;19.54;100.00
37368;BME280;23240;43.210;27.910;2023-05-23T05:24:13;100657.84;;;19.65;100.00
37368;BME280;23240;43.210;27.910;2023-05-23T05:26:39;100653.06;;;19.82;100.00
37368;BME280;23240;43.210;27.910;2023-05-23T05:29:05;100661.03;;;19.83;100.00
37368;BME280;23240;43.210;27.910;2023-05-23T05:31:30;100652.69;;;19.85;100.00
37368;BME280;23240;43.210;27.910;2023-05-23T05:33:56;100653.31;;;19.87;100.00
37368;BME280;23240;43.210;27.910;2023-05-23T05:36:22;100659.16;;;19.98;100.00
37368;BME280;23240;43.210;27.910;2023-05-23T05:38:47;100657.91;;;20.01;100.00
37368;BME280;23240;43.210;27.910;2023-05-23T05:41:13;100654.25;;;20.09;100.00
37368;BME280;23240;43.210;27.910;2023-05-23T05:43:38;100677.69;;;20.10;100.00
37368;BME280;23240;43.210;27.910;2023-05-23T05:46:03;100668.41;;;20.19;100.00
37368;BME280;23240;43.210;27.910;2023-05-23T05:48:29;100676.00;;;20.23;100.00
37368;BME280;23240;43.210;27.910;2023-05-23T05:50:54;100676.25;;;20.43;100.00
37368;BME280;23240;43.210;27.910;2023-05-23T05:53:21;100674.50;;;20.72;100.00
37368;BME280;23240;43.210;27.910;2023-05-23T05:55:47;100675.81;;;20.97;100.00
37368;BME280;23240;43.210;27.910;2023-05-23T05:58:12;100673.75;;;20.99;100.00
37368;BME280;23240;43.210;27.910;2023-05-23T06:00:37;100673.50;;;21.22;100.00
37368;BME280;23240;43.210;27.910;2023-05-23T06:03:08;100674.13;;;21.39;100.00
37368;BME280;23240;43.210;27.910;2023-05-23T06:05:34;100684.31;;;21.30;100.00
37368;BME280;23240;43.210;27.910;2023-05-23T06:08:01;100668.13;;;21.29;100.00
37368;BME280;23240;43.210;27.910;2023-05-23T06:10:26;100688.63;;;21.25;100.00
37368;BME280;23240;43.210;27.910;2023-05-23T06:12:52;100680.88;;;21.00;100.00
37368;BME280;23240;43.210;27.910;2023-05-23T06:15:17;100685.78;;;20.90;100.00
37368;BME280;23240;43.210;27.910;2023-05-23T06:17:42;100681.56;;;20.66;100.00
37368;BME280;23240;43.210;27.910;2023-05-23T06:20:09;100674.75;;;20.77;100.00
37368;BME280;23240;43.210;27.910;2023-05-23T06:22:35;100677.44;;;20.92;100.00
37368;BME280;23240;43.210;27.910;2023-05-23T06:25:00;100678.19;;;21.07;100.00
37368;BME280;23240;43.210;27.910;2023-05-23T06:27:26;100678.16;;;21.00;100.00
37368;BME280;23240;43.210;27.910;2023-05-23T06:29:51;100674.91;;;21.33;100.00
37368;BME280;23240;43.210;27.910;2023-05-23T06:32:16;100680.78;;;21.65;100.00
37368;BME280;23240;43.210;27.910;2023-05-23T06:34:41;100690.25;;;21.69;100.00
37368;BME280;23240;43.210;27.910;2023-05-23T06:37:07;100677.81;;;21.60;100.00
37368;BME280;23240;43.210;27.910;2023-05-23T06:39:32;100688.94;;;21.58;100.00
37368;BME280;23240;43.210;27.910;2023-05-23T06:41:57;100685.00;;;21.39;100.00
37368;BME280;23240;43.210;27.910;2023-05-23T06:44:23;100685.41;;;21.15;100.00
37368;BME280;23240;43.210;27.910;2023-05-23T06:46:48;100679.13;;;21.14;100.00
37368;BME280;23240;43.210;27.910;2023-05-23T06:49:14;100677.59;;;21.12;100.00
37368;BME280;23240;43.210;27.910;2023-05-23T06:51:39;100687.19;;;21.08;100.00
37368;BME280;23240;43.210;27.910;2023-05-23T06:54:04;100692.81;;;20.99;100.00
37368;BME280;23240;43.210;27.910;2023-05-23T06:56:30;100685.28;;;20.80;100.00
37368;BME280;23240;43.210;27.910;2023-05-23T06:58:55;100682.25;;;20.90;100.00
37368;BME280;23240;43.210;27.910;2023-05-23T07:01:21;100666.47;;;21.28;100.00
37368;BME280;23240;43.210;27.910;2023-05-23T07:03:46;100671.53;;;21.31;100.00
37368;BME280;23240;43.210;27.910;2023-05-23T07:06:11;100672.59;;;21.58;100.00
37368;BME280;23240;43.210;27.910;2023-05-23T07:08:37;100667.88;;;21.80;100.00
37368;BME280;23240;43.210;27.910;2023-05-23T07:11:03;100667.84;;;21.73;100.00
37368;BME280;23240;43.210;27.910;2023-05-23T07:13:28;100668.84;;;21.66;100.00
37368;BME280;23240;43.210;27.910;2023-05-23T07:15:54;100664.03;;;22.02;100.00
37368;BME280;23240;43.210;27.910;2023-05-23T07:18:19;100665.50;;;22.40;99.19
37368;BME280;23240;43.210;27.910;2023-05-23T07:20:45;100665.06;;;22.36;98.57
37368;BME280;23240;43.210;27.910;2023-05-23T07:23:10;100670.13;;;22.46;100.00
37368;BME280;23240;43.210;27.910;2023-05-23T07:25:35;100678.47;;;22.31;98.59
37368;BME280;23240;43.210;27.910;2023-05-23T07:28:01;100675.06;;;22.16;98.66
37368;BME280;23240;43.210;27.910;2023-05-23T07:30:26;100670.25;;;21.90;100.00
37368;BME280;23240;43.210;27.910;2023-05-23T07:32:51;100664.44;;;21.99;100.00
37368;BME280;23240;43.210;27.910;2023-05-23T07:35:17;100664.53;;;22.13;100.00
37368;BME280;23240;43.210;27.910;2023-05-23T07:37:47;100665.78;;;22.10;100.00
37368;BME280;23240;43.210;27.910;2023-05-23T07:40:13;100667.59;;;21.96;100.00
37368;BME280;23240;43.210;27.910;2023-05-23T07:42:38;100656.00;;;21.94;100.00
37368;BME280;23240;43.210;27.910;2023-05-23T07:45:03;100658.59;;;22.09;100.00
37368;BME280;23240;43.210;27.910;2023-05-23T07:47:29;100664.59;;;22.19;100.00
37368;BME280;23240;43.210;27.910;2023-05-23T07:49:55;100670.47;;;22.23;100.00
37368;BME280;23240;43.210;27.910;2023-05-23T07:52:20;100667.56;;;22.31;100.00
37368;BME280;23240;43.210;27.910;2023-05-23T07:54:46;100667.56;;;22.38;100.00
37368;BME280;23240;43.210;27.910;2023-05-23T07:57:11;100662.78;;;22.46;100.00
37368;BME280;23240;43.210;27.910;2023-05-23T07:59:37;100671.81;;;22.47;100.00
37368;BME280;23240;43.210;27.910;2023-05-23T08:02:02;100675.13;;;22.29;100.00
37368;BME280;23240;43.210;27.910;2023-05-23T08:04:27;100674.34;;;22.07;100.00
37368;BME280;23240;43.210;27.910;2023-05-23T08:06:53;100674.94;;;22.02;100.00
37368;BME280;23240;43.210;27.910;2023-05-23T08:09:20;100672.34;;;21.88;100.00
37368;BME280;23240;43.210;27.910;2023-05-23T08:11:45;100671.16;;;21.97;100.00
37368;BME280;23240;43.210;27.910;2023-05-23T08:14:10;100673.81;;;21.90;100.00
37368;BME280;23240;43.210;27.910;2023-05-23T08:16:36;100667.41;;;22.04;100.00
37368;BME280;23240;43.210;27.910;2023-05-23T08:19:01;100657.88;;;22.22;100.00
37368;BME280;23240;43.210;27.910;2023-05-23T08:21:27;100670.50;;;22.36;100.00
37368;BME280;23240;43.210;27.910;2023-05-23T08:23:52;100665.22;;;22.96;100.00
37368;BME280;23240;43.210;27.910;2023-05-23T08:26:18;100651.59;;;23.22;96.04
37368;BME280;23240;43.210;27.910;2023-05-23T08:28:43;100649.47;;;23.51;100.00
37368;BME280;23240;43.210;27.910;2023-05-23T08:31:08;100653.47;;;23.75;100.00
37368;BME280;23240;43.210;27.910;2023-05-23T08:33:33;100652.16;;;23.91;98.06
37368;BME280;23240;43.210;27.910;2023-05-23T08:35:59;100650.13;;;23.26;99.51
37368;BME280;23240;43.210;27.910;2023-05-23T08:38:24;100654.53;;;23.41;99.67
37368;BME280;23240;43.210;27.910;2023-05-23T08:40:51;100642.91;;;23.92;92.27
37368;BME280;23240;43.210;27.910;2023-05-23T08:43:16;100647.72;;;23.96;89.32
37368;BME280;23240;43.210;27.910;2023-05-23T08:45:42;100647.09;;;23.88;89.20
37368;BME280;23240;43.210;27.910;2023-05-23T08:48:08;100650.75;;;23.75;92.04
37368;BME280;23240;43.210;27.910;2023-05-23T08:50:37;100649.66;;;23.63;93.03
37368;BME280;23240;43.210;27.910;2023-05-23T08:53:03;100664.19;;;23.56;95.22
37368;BME280;23240;43.210;27.910;2023-05-23T08:55:29;100659.59;;;23.50;94.69
37368;BME280;23240;43.210;27.910;2023-05-23T08:57:55;100664.59;;;23.53;93.14
37368;BME280;23240;43.210;27.910;2023-05-23T09:00:21;100667.78;;;23.37;93.52
37368;BME280;23240;43.210;27.910;2023-05-23T09:02:48;100672.41;;;23.37;99.71
37368;BME280;23240;43.210;27.910;2023-05-23T09:05:14;100656.31;;;22.61;100.00
37368;BME280;23240;43.210;27.910;2023-05-23T09:07:39;100670.91;;;22.33;100.00
37368;BME280;23240;43.210;27.910;2023-05-23T09:10:08;100664.22;;;22.36;100.00
37368;BME280;23240;43.210;27.910;2023-05-23T09:12:34;100665.06;;;22.36;100.00
37368;BME280;23240;43.210;27.910;2023-05-23T09:15:05;100657.28;;;22.33;100.00
37368;BME280;23240;43.210;27.910;2023-05-23T09:17:32;100658.44;;;22.58;100.00
37368;BME280;23240;43.210;27.910;2023-05-23T09:20:12;100642.28;;;22.70;100.00
37368;BME280;23240;43.210;27.910;2023-05-23T09:22:38;100650.69;;;22.69;100.00
37368;BME280;23240;43.210;27.910;2023-05-23T09:25:04;100650.75;;;22.27;100.00
37368;BME280;23240;43.210;27.910;2023-05-23T09:27:30;100648.38;;;21.76;100.00
37368;BME280;23240;43.210;27.910;2023-05-23T09:29:55;100644.88;;;21.54;100.00
37368;BME280;23240;43.210;27.910;2023-05-23T09:32:20;100652.25;;;21.61;100.00
37368;BME280;23240;43.210;27.910;2023-05-23T09:37:21;100656.59;;;22.18;100.00
37368;BME280;23240;43.210;27.910;2023-05-23T09:39:48;100651.91;;;22.05;100.00
37368;BME280;23240;43.210;27.910;2023-05-23T09:42:20;100657.03;;;21.87;100.00
37368;BME280;23240;43.210;27.910;2023-05-23T09:44:49;100655.38;;;21.58;100.00
37368;BME280;23240;43.210;27.910;2023-05-23T09:47:14;100664.00;;;21.33;100.00
37368;BME280;23240;43.210;27.910;2023-05-23T09:49:40;100659.47;;;20.97;100.00
37368;BME280;23240;43.210;27.910;2023-05-23T09:52:07;100656.06;;;21.17;100.00
37368;BME280;23240;43.210;27.910;2023-05-23T09:54:33;100668.94;;;21.51;100.00
37368;BME280;23240;43.210;27.910;2023-05-23T09:56:59;100668.31;;;21.77;100.00
37368;BME280;23240;43.210;27.910;2023-05-23T09:59:29;100674.22;;;21.52;100.00
37368;BME280;23240;43.210;27.910;2023-05-23T10:01:55;100676.31;;;21.29;100.00
37368;BME280;23240;43.210;27.910;2023-05-23T10:04:21;100690.31;;;20.83;100.00
37368;BME280;23240;43.210;27.910;2023-05-23T10:06:50;100683.34;;;20.44;100.00
37368;BME280;23240;43.210;27.910;2023-05-23T10:09:18;100679.34;;;20.25;100.00
37368;BME280;23240;43.210;27.910;2023-05-23T10:14:28;100691.75;;;20.28;100.00
37368;BME280;23240;43.210;27.910;2023-05-23T10:16:55;100686.06;;;20.08;100.00
37368;BME280;23240;43.210;27.910;2023-05-23T10:21:50;100688.66;;;20.01;100.00
37368;BME280;23240;43.210;27.910;2023-05-23T10:24:19;100689.34;;;19.51;100.00
37368;BME280;23240;43.210;27.910;2023-05-23T10:26:45;100690.63;;;19.25;100.00
37368;BME280;23240;43.210;27.910;2023-05-23T10:29:11;100699.47;;;19.19;100.00
37368;BME280;23240;43.210;27.910;2023-05-23T10:31:36;100697.44;;;18.98;100.00
37368;BME280;23240;43.210;27.910;2023-05-23T10:34:12;100700.78;;;18.86;100.00
37368;BME280;23240;43.210;27.910;2023-05-23T10:36:43;100703.38;;;18.71;100.00
37368;BME280;23240;43.210;27.910;2023-05-23T10:42:00;100708.16;;;18.30;100.00
37368;BME280;23240;43.210;27.910;2023-05-23T10:44:27;100713.97;;;18.18;100.00
37368;BME280;23240;43.210;27.910;2023-05-23T10:46:54;100725.59;;;17.88;100.00
37368;BME280;23240;43.210;27.910;2023-05-23T10:49:23;100728.16;;;17.48;100.00
37368;BME280;23240;43.210;27.910;2023-05-23T10:52:01;100751.84;;;17.14;100.00
37368;BME280;23240;43.210;27.910;2023-05-23T10:54:26;100747.25;;;16.98;100.00
37368;BME280;23240;43.210;27.910;2023-05-23T10:57:01;100743.38;;;16.92;100.00
37368;BME280;23240;43.210;27.910;2023-05-23T10:59:27;100748.94;;;16.91;100.00
37368;BME280;23240;43.210;27.910;2023-05-23T11:01:53;100753.38;;;17.08;100.00
37368;BME280;23240;43.210;27.910;2023-05-23T11:04:26;100758.25;;;17.21;100.00
37368;BME280;23240;43.210;27.910;2023-05-23T11:06:52;100745.44;;;17.56;100.00
37368;BME280;23240;43.210;27.910;2023-05-23T11:09:18;100741.66;;;17.97;100.00
37368;BME280;23240;43.210;27.910;2023-05-23T11:16:59;100714.25;;;18.71;100.00
37368;BME280;23240;43.210;27.910;2023-05-23T11:19:25;100720.44;;;19.11;100.00
37368;BME280;23240;43.210;27.910;2023-05-23T11:22:01;100714.06;;;19.41;100.00
37368;BME280;23240;43.210;27.910;2023-05-23T11:27:11;100707.69;;;20.31;100.00
37368;BME280;23240;43.210;27.910;2023-05-23T11:29:36;100711.56;;;20.73;100.00
37368;BME280;23240;43.210;27.910;2023-05-23T11:32:08;100709.25;;;20.91;100.00
37368;BME280;23240;43.210;27.910;2023-05-23T11:34:34;100709.88;;;20.72;100.00
37368;BME280;23240;43.210;27.910;2023-05-23T11:37:01;100707.44;;;20.77;100.00
37368;BME280;23240;43.210;27.910;2023-05-23T11:39:27;100707.38;;;20.70;100.00
37368;BME280;23240;43.210;27.910;2023-05-23T11:41:59;100703.59;;;20.71;100.00
37368;BME280;23240;43.210;27.910;2023-05-23T11:44:24;100708.50;;;20.61;100.00
37368;BME280;23240;43.210;27.910;2023-05-23T11:49:26;100697.22;;;21.00;100.00
37368;BME280;23240;43.210;27.910;2023-05-23T11:51:52;100709.19;;;20.85;100.00
37368;BME280;23240;43.210;27.910;2023-05-23T11:54:18;100702.63;;;20.79;100.00
37368;BME280;23240;43.210;27.910;2023-05-23T11:56:46;100696.16;;;21.01;100.00
37368;BME280;23240;43.210;27.910;2023-05-23T11:59:11;100700.03;;;21.57;100.00
37368;BME280;23240;43.210;27.910;2023-05-23T12:01:37;100693.31;;;21.52;100.00
37368;BME280;23240;43.210;27.910;2023-05-23T12:04:07;100695.13;;;21.45;100.00
37368;BME280;23240;43.210;27.910;2023-05-23T12:06:33;100690.47;;;21.39;100.00
37368;BME280;23240;43.210;27.910;2023-05-23T12:08:59;100691.31;;;21.40;100.00
37368;BME280;23240;43.210;27.910;2023-05-23T12:11:24;100690.72;;;21.23;100.00
37368;BME280;23240;43.210;27.910;2023-05-23T12:13:51;100683.06;;;21.12;100.00
37368;BME280;23240;43.210;27.910;2023-05-23T12:16:17;100685.28;;;21.01;100.00
37368;BME280;23240;43.210;27.910;2023-05-23T12:18:42;100688.09;;;20.72;100.00
37368;BME280;23240;43.210;27.910;2023-05-23T12:21:07;100685.13;;;20.67;100.00
37368;BME280;23240;43.210;27.910;2023-05-23T12:23:33;100685.97;;;20.67;100.00
37368;BME280;23240;43.210;27.910;2023-05-23T12:26:00;100675.19;;;20.44;100.00
37368;BME280;23240;43.210;27.910;2023-05-23T12:29:01;100694.06;;;20.46;100.00
37368;BME280;23240;43.210;27.910;2023-05-23T12:31:20;100682.66;;;20.21;100.00
37368;BME280;23240;43.210;27.910;2023-05-23T12:33:46;100676.38;;;20.06;100.00
37368;BME280;23240;43.210;27.910;2023-05-23T12:36:12;100675.19;;;19.93;100.00
37368;BME280;23240;43.210;27.910;2023-05-23T12:38:38;100671.72;;;19.85;100.00
37368;BME280;23240;43.210;27.910;2023-05-23T12:41:11;100660.56;;;19.80;100.00
37368;BME280;23240;43.210;27.910;2023-05-23T12:43:37;100661.75;;;19.77;100.00
37368;BME280;23240;43.210;27.910;2023-05-23T12:46:03;100669.00;;;19.99;100.00
37368;BME280;23240;43.210;27.910;2023-05-23T12:48:28;100664.78;;;20.12;100.00
37368;BME280;23240;43.210;27.910;2023-05-23T12:50:54;100662.31;;;20.17;100.00